Terminal Aerodrome Forecast
Issued by NWS Shreveport, LA

Home | Current Version | Previous Version | Text Only | Print | Product List | Glossary On
Versions: 1 2 3 4 5 6 7 8 9 10 11 12 13 14 15 16 17 18 19 20 21 22 23 24 25
665
FTUS44 KSHV 220732 AAB
TAFSHV
TAF AMD
KSHV 220732Z 2208/2306 08006KT P6SM VCSH BKN008
      TEMPO 2208/2210 3SM TSRA BR SCT010 OVC040CB
     FM221100 03006KT P6SM OVC010
      TEMPO 2211/2215 2SM BR OVC004
     FM222000 09006KT P6SM OVC010
     FM230100 14005KT 3SM -SHRA BR OVC005=

USA.gov is the U.S. government's official web portal to all federal, state and local government web resources and services.